createdAt,value
2024-01-06T06:17:48.810Z,52.39
2024-01-06T06:18:53.998Z,52.42
2024-01-06T06:21:31.881Z,52.25
2024-01-06T06:23:04.648Z,52.30
2024-01-06T06:24:36.606Z,52.22
2024-01-06T06:25:32.671Z,52.07
2024-01-06T06:33:14.355Z,52.10
2024-01-06T06:36:03.131Z,52.07
2024-01-06T06:37:48.797Z,52.12
2024-01-06T06:43:50.519Z,51.96
2024-01-06T06:45:13.912Z,51.94
2024-01-06T06:48:07.274Z,51.91
2024-01-06T06:48:23.894Z,51.94
2024-01-06T06:49:35.056Z,51.93
2024-01-06T06:53:23.335Z,51.85
2024-01-06T06:54:34.269Z,51.95
2024-01-06T06:56:18.257Z,52.11
2024-01-06T06:57:44.223Z,51.96
2024-01-06T06:58:39.267Z,52.06
2024-01-06T07:03:29.902Z,52.15
2024-01-06T07:04:35.351Z,52.21
2024-01-06T07:07:26.150Z,52.13
2024-01-06T07:09:49.630Z,52.24
2024-01-06T07:10:56.027Z,52.20
2024-01-06T07:11:57.881Z,52.28
2024-01-06T07:13:04.446Z,52.41
2024-01-06T07:14:06.845Z,52.21
2024-01-06T07:15:22.110Z,52.29
2024-01-06T07:16:26.840Z,52.45
2024-01-06T07:17:31.808Z,52.48
2024-01-06T07:18:35.154Z,52.30
2024-01-06T07:19:40.143Z,52.36
2024-01-06T07:20:41.996Z,52.48
2024-01-06T07:21:43.870Z,52.49
2024-01-06T07:22:48.726Z,52.48
2024-01-06T07:23:51.047Z,52.40
2024-01-06T07:24:55.815Z,52.39
2024-01-06T07:26:33.041Z,52.44
2024-01-06T07:30:42.795Z,52.20
2024-01-06T07:31:58.230Z,52.24
2024-01-06T07:33:23.863Z,52.23
2024-01-06T07:34:35.575Z,52.12
2024-01-06T07:37:35.344Z,52.29
2024-01-06T07:38:31.243Z,52.24
2024-01-06T07:39:59.512Z,52.26
2024-01-06T07:41:02.300Z,52.27
2024-01-06T07:42:07.296Z,52.45
2024-01-06T07:43:10.578Z,52.40
2024-01-06T07:44:32.559Z,52.50
2024-01-06T07:45:51.173Z,52.42
2024-01-06T07:46:55.602Z,52.59
2024-01-06T07:48:15.063Z,52.48
2024-01-06T07:49:22.465Z,52.50
2024-01-06T07:50:25.625Z,52.55
2024-01-06T07:52:57.314Z,52.61
2024-01-06T07:54:00.025Z,52.70
2024-01-06T07:55:04.486Z,52.70
2024-01-06T07:56:07.926Z,52.60
2024-01-06T07:57:14.644Z,52.76
2024-01-06T07:58:22.529Z,52.64
2024-01-06T07:59:27.771Z,52.58
2024-01-06T08:00:31.442Z,52.58
2024-01-06T08:01:35.292Z,52.83
2024-01-06T08:02:45.524Z,52.73
2024-01-06T08:03:55.619Z,52.65
2024-01-06T08:05:01.383Z,52.69
2024-01-06T08:06:12.903Z,52.54
2024-01-06T08:07:15.484Z,52.69
2024-01-06T08:08:20.019Z,52.69
2024-01-06T08:09:22.647Z,52.67
2024-01-06T08:10:25.802Z,52.57
2024-01-06T08:11:31.692Z,52.54
2024-01-06T08:12:33.541Z,52.61
2024-01-06T08:13:44.145Z,52.63
2024-01-06T08:14:46.039Z,52.55
2024-01-06T08:15:48.260Z,52.49
2024-01-06T08:16:54.778Z,52.40
2024-01-06T08:18:04.844Z,52.53
2024-01-06T08:19:17.925Z,52.46
2024-01-06T08:20:34.836Z,52.48
2024-01-06T08:21:45.455Z,52.36
2024-01-06T08:22:49.883Z,52.45
2024-01-06T08:23:52.949Z,52.45
2024-01-06T08:25:01.579Z,52.48
2024-01-06T08:26:03.311Z,52.45
2024-01-06T08:27:08.962Z,52.29
2024-01-06T08:28:14.624Z,52.50
2024-01-06T08:29:18.347Z,52.45
2024-01-06T08:30:20.296Z,52.58
2024-01-06T08:31:30.606Z,52.47
2024-01-06T08:32:36.192Z,52.38
2024-01-06T08:33:38.528Z,52.43
2024-01-06T08:34:42.101Z,52.53
2024-01-06T08:35:43.766Z,52.42
2024-01-06T08:36:52.131Z,52.50
2024-01-06T08:38:01.607Z,52.53
2024-01-06T08:39:04.738Z,52.66
2024-01-06T08:40:12.764Z,52.50
2024-01-06T08:41:15.774Z,52.63
2024-01-06T08:42:23.088Z,52.79
2024-01-06T08:43:46.973Z,52.71
2024-01-06T08:44:50.165Z,52.64
2024-01-06T08:46:00.152Z,52.65
2024-01-06T09:54:51.613Z,52.94
2024-01-06T10:07:38.898Z,52.73
2024-01-06T10:16:55.585Z,52.91
2024-01-06T10:18:00.520Z,53.03
2024-01-06T10:19:02.299Z,53.15
2024-01-06T10:20:07.142Z,53.11
2024-01-06T10:21:08.803Z,53.10
2024-01-06T10:22:10.694Z,53.04
2024-01-06T10:23:14.830Z,53.19
2024-01-06T10:24:16.634Z,53.02
2024-01-06T10:25:53.751Z,52.91
2024-01-06T10:27:20.995Z,52.81
2024-01-06T10:29:42.465Z,52.96
2024-01-06T10:30:56.064Z,52.78
2024-01-06T10:32:08.236Z,52.90
2024-01-06T10:33:10.766Z,52.80
2024-01-06T10:34:13.005Z,52.69
2024-01-06T10:35:14.677Z,52.96
2024-01-06T10:36:17.800Z,52.84
2024-01-06T10:37:19.719Z,52.80
2024-01-06T10:38:24.434Z,52.96
2024-01-06T10:39:30.889Z,52.71
2024-01-06T10:40:46.052Z,52.81
2024-01-06T10:41:47.789Z,52.71
2024-01-06T10:42:49.576Z,52.79
2024-01-06T10:43:54.371Z,52.75
2024-01-06T10:44:55.997Z,52.71
2024-01-06T10:45:57.933Z,52.71
2024-01-06T10:46:59.973Z,52.76
2024-01-06T10:48:02.124Z,52.60
2024-01-06T10:49:04.745Z,52.81
2024-01-06T10:50:06.885Z,52.76
2024-01-06T10:51:08.988Z,52.63
2024-01-06T10:52:22.685Z,52.82
2024-01-06T10:55:57.285Z,52.47
2024-01-06T10:56:59.296Z,52.48
2024-01-06T10:58:04.004Z,52.39
2024-01-06T10:59:05.696Z,52.33
2024-01-06T11:00:07.325Z,52.13
2024-01-06T11:01:09.223Z,52.22
2024-01-06T11:02:10.973Z,52.12
2024-01-06T11:03:12.787Z,52.04
2024-01-06T11:04:15.048Z,52.16
2024-01-06T11:05:16.930Z,52.10
2024-01-06T11:06:18.667Z,52.09
2024-01-06T11:07:20.281Z,52.08
2024-01-06T11:08:21.853Z,52.21
2024-01-06T11:09:23.568Z,52.07
2024-01-06T11:10:25.159Z,52.16
2024-01-06T11:11:27.396Z,51.96
2024-01-06T11:12:29.487Z,52.08
2024-01-06T11:13:37.748Z,52.29
2024-01-06T12:53:18.931Z,50.70
2024-01-06T12:56:51.369Z,50.35
2024-01-06T13:27:25.263Z,50.27
2024-01-06T15:54:14.271Z,49.29
2024-01-06T15:55:16.352Z,49.21
2024-01-06T15:56:24.043Z,49.11
2024-01-06T15:59:08.697Z,49.08
2024-01-06T16:05:41.828Z,49.05
2024-01-06T16:06:47.708Z,49.08
2024-01-06T16:08:01.498Z,49.13
2024-01-06T16:09:08.925Z,49.01
2024-01-06T16:10:23.269Z,49.16
2024-01-06T16:11:28.325Z,49.12
2024-01-06T16:12:30.925Z,49.14
2024-01-06T16:13:41.296Z,48.97
2024-01-06T16:14:46.522Z,49.11
2024-01-06T16:15:52.216Z,49.05
2024-01-06T16:17:02.678Z,48.91
2024-01-06T16:18:07.797Z,48.93
2024-01-06T16:19:15.438Z,48.81
2024-01-06T16:20:25.388Z,48.78
2024-01-06T16:21:40.268Z,48.70
2024-01-06T16:22:43.749Z,48.94
2024-01-06T16:23:46.442Z,48.74
2024-01-06T16:24:48.874Z,48.87
2024-01-06T16:25:53.393Z,48.75
2024-01-06T16:26:55.400Z,48.65
2024-01-06T16:28:04.621Z,48.77
2024-01-06T16:29:25.726Z,48.88
2024-01-06T16:30:39.771Z,48.86
2024-01-06T16:31:48.345Z,48.88
2024-01-06T16:32:50.605Z,48.90
2024-01-06T16:34:01.298Z,48.81
2024-01-06T16:35:06.179Z,48.77
2024-01-06T16:36:09.657Z,48.72
2024-01-06T16:38:38.423Z,48.99
2024-01-06T16:39:43.810Z,48.97
2024-01-06T16:40:49.816Z,48.92
2024-01-06T16:41:53.242Z,48.91
2024-01-06T16:43:20.541Z,48.89
2024-01-06T16:44:33.389Z,48.75
2024-01-06T16:45:40.547Z,48.88
2024-01-06T16:46:46.996Z,48.98
2024-01-06T16:47:53.147Z,48.80
2024-01-06T16:48:57.913Z,48.92
2024-01-06T16:50:00.098Z,48.81
2024-01-06T16:51:02.019Z,48.99
2024-01-06T16:52:08.055Z,49.03
2024-01-06T16:53:30.097Z,48.82
2024-01-06T16:54:33.277Z,48.91
2024-01-06T16:55:36.006Z,48.74
2024-01-06T16:56:40.685Z,48.96
2024-01-06T16:57:43.440Z,49.03
2024-01-06T16:58:59.202Z,48.98
2024-01-06T17:00:07.131Z,48.96
2024-01-06T17:01:14.177Z,48.93
2024-01-06T17:02:19.992Z,48.93
2024-01-06T17:03:25.522Z,48.95
2024-01-06T17:04:28.253Z,48.75
2024-01-06T17:05:36.674Z,48.84
2024-01-06T17:06:40.690Z,48.78
2024-01-06T17:07:44.455Z,48.81
2024-01-06T17:08:54.703Z,48.72
2024-01-06T17:10:00.021Z,48.88
2024-01-06T17:11:07.600Z,48.82
2024-01-06T17:12:13.532Z,48.70
2024-01-06T17:13:18.701Z,48.85
2024-01-06T17:14:25.705Z,48.68
2024-01-06T17:15:27.883Z,48.68
2024-01-06T17:16:34.033Z,48.71
2024-01-06T17:17:58.543Z,48.77
2024-01-06T17:19:06.661Z,48.87
2024-01-06T17:20:13.475Z,48.75
2024-01-06T17:21:18.778Z,48.84
2024-01-06T17:22:32.508Z,48.68
2024-01-06T17:23:34.789Z,48.95
2024-01-06T17:24:40.189Z,48.91
2024-01-06T17:25:43.720Z,48.89
2024-01-06T17:28:03.612Z,48.86
2024-01-06T17:29:05.808Z,48.88
2024-01-06T17:30:07.968Z,49.06
2024-01-06T17:31:12.923Z,48.91
2024-01-06T17:32:15.485Z,48.96
2024-01-06T17:34:39.179Z,48.85
2024-01-06T17:35:52.105Z,48.81
2024-01-06T17:37:00.169Z,48.97
2024-01-06T17:38:04.893Z,49.01
2024-01-06T17:39:06.950Z,48.89
2024-01-06T17:40:09.069Z,48.89
2024-01-06T17:41:16.871Z,48.91
2024-01-06T17:42:19.111Z,48.86
2024-01-06T17:43:28.908Z,49.00
2024-01-06T17:44:37.578Z,48.86
2024-01-06T17:45:40.533Z,49.03
2024-01-06T17:46:42.923Z,48.90
2024-01-06T17:47:45.679Z,49.09
2024-01-06T17:48:48.893Z,49.01
2024-01-06T17:49:55.264Z,49.11
2024-01-06T17:50:59.125Z,49.00
2024-01-06T17:52:01.377Z,48.90
2024-01-06T17:53:12.258Z,48.92
2024-01-06T17:54:17.379Z,48.80
2024-01-06T17:55:19.218Z,48.92
2024-01-06T17:56:24.064Z,49.03
2024-01-06T17:57:29.043Z,49.05
2024-01-06T17:58:31.297Z,49.09
2024-01-06T17:59:42.174Z,49.07
2024-01-06T18:00:44.406Z,48.96
2024-01-06T18:01:46.914Z,49.04
2024-01-06T18:02:54.856Z,49.00
2024-01-06T18:03:59.955Z,49.08
2024-01-06T18:05:16.099Z,49.10
2024-01-06T18:06:20.024Z,49.01
2024-01-06T18:07:22.858Z,49.02
2024-01-06T18:08:27.798Z,49.00
2024-01-06T18:09:31.319Z,49.22
2024-01-06T18:10:34.298Z,49.05
2024-01-06T18:11:38.951Z,49.19
2024-01-06T18:12:45.224Z,49.17
2024-01-06T18:13:49.809Z,49.14
2024-01-06T18:14:51.890Z,49.02
2024-01-06T18:15:55.172Z,49.12
2024-01-06T18:16:56.939Z,49.09
2024-01-06T18:18:37.401Z,49.23
2024-01-06T18:46:14.393Z,47.34
2024-01-06T18:47:23.109Z,47.32
2024-01-06T18:48:27.624Z,47.18
2024-01-06T18:49:30.537Z,47.22
2024-01-06T18:50:32.384Z,47.18
2024-01-06T18:51:37.034Z,46.94
2024-01-06T18:52:39.904Z,46.92
2024-01-06T18:53:42.381Z,47.04
2024-01-06T18:54:47.070Z,46.88
2024-01-06T18:55:48.805Z,46.90
2024-01-06T18:56:50.539Z,46.70
2024-01-06T18:57:52.525Z,46.79
2024-01-06T18:59:00.467Z,46.67
2024-01-06T19:00:02.206Z,46.48
2024-01-06T19:01:05.177Z,46.35
2024-01-06T19:02:07.167Z,46.42
2024-01-06T19:03:17.750Z,46.43
2024-01-06T19:17:22.841Z,45.75
2024-01-06T19:18:25.700Z,45.74
2024-01-06T19:19:29.390Z,45.73
2024-01-06T19:20:31.402Z,45.60
2024-01-06T19:21:33.377Z,45.63
2024-01-06T19:23:53.908Z,45.67
2024-01-06T19:25:05.230Z,45.41
2024-01-06T19:26:11.512Z,45.33
2024-01-06T19:38:20.473Z,45.23
2024-01-06T19:39:22.446Z,45.22
2024-01-06T19:40:24.176Z,45.15
2024-01-06T19:41:25.799Z,45.19
2024-01-06T19:42:27.640Z,45.01
2024-01-06T19:43:31.571Z,45.07
2024-01-06T19:44:35.301Z,45.04
2024-01-06T19:45:37.076Z,44.92
2024-01-06T19:46:38.779Z,44.99
2024-01-06T19:47:40.556Z,44.94
2024-01-06T19:48:42.470Z,44.85
2024-01-06T19:49:44.192Z,44.75
2024-01-06T19:50:45.764Z,44.76
2024-01-06T19:51:56.477Z,44.88
2024-01-06T19:53:00.884Z,44.73
2024-01-06T19:54:02.739Z,44.57
2024-01-06T19:55:04.477Z,44.74
2024-01-06T19:56:06.681Z,44.64
2024-01-06T19:57:08.392Z,44.71
2024-01-06T19:58:10.510Z,44.56
2024-01-06T19:59:17.319Z,44.73
2024-01-06T20:00:19.481Z,44.41
2024-01-06T20:01:25.399Z,44.42
2024-01-06T20:02:28.533Z,44.33
2024-01-06T20:03:30.236Z,44.61
2024-01-06T20:04:32.024Z,44.28
2024-01-06T20:05:33.870Z,44.41
2024-01-06T20:06:47.956Z,44.23
2024-01-06T20:07:52.041Z,44.09
2024-01-06T20:09:04.583Z,44.36
2024-01-06T20:10:12.432Z,44.01
2024-01-06T20:11:25.672Z,44.13
2024-01-06T20:13:46.110Z,44.18
2024-01-06T20:14:51.995Z,44.08
2024-01-06T20:15:54.070Z,44.05
2024-01-06T20:16:56.109Z,44.29
2024-01-06T20:17:58.022Z,43.99
2024-01-06T21:38:10.355Z,43.53
2024-01-06T23:10:05.699Z,46.83
2024-01-06T23:11:40.703Z,46.71
2024-01-06T23:14:17.858Z,46.76
2024-01-06T23:15:28.994Z,46.89
2024-01-06T23:16:31.028Z,46.93
